createdAt,value
2019-06-07T00:02:02.481Z,11.77
2019-06-07T00:04:33.215Z,11.87
2019-06-07T00:07:04.228Z,11.97
2019-06-07T00:09:34.949Z,11.57
2019-06-07T00:12:09.135Z,12.80
2019-06-07T00:14:38.612Z,12.40
2019-06-07T00:17:12.483Z,11.07
2019-06-07T00:19:41.895Z,11.60
2019-06-07T00:22:18.518Z,11.03
2019-06-07T00:24:45.360Z,11.73
2019-06-07T00:27:18.290Z,11.80
2019-06-07T00:29:48.873Z,12.70
2019-06-07T00:32:22.002Z,12.27
2019-06-07T00:34:52.325Z,11.40
2019-06-07T00:37:25.510Z,10.87
2019-06-07T00:40:13.534Z,11.43
2019-06-07T00:42:29.847Z,12.80
2019-06-07T00:45:00.845Z,11.77
2019-06-07T00:47:31.836Z,11.80
2019-06-07T00:50:02.555Z,11.67
2019-06-07T00:55:07.319Z,10.57
2019-06-07T00:57:39.416Z,12.63
2019-06-07T01:00:12.294Z,11.83
2019-06-07T01:02:43.434Z,12.13
2019-06-07T01:05:15.917Z,11.20
2019-06-07T01:07:46.917Z,11.80
2019-06-07T01:10:46.031Z,12.57
2019-06-07T01:12:51.021Z,11.53
2019-06-07T01:15:28.855Z,12.43
2019-06-07T01:20:28.653Z,11.73
2019-06-07T01:23:01.194Z,11.60
2019-06-07T01:25:31.956Z,11.20
2019-06-07T01:28:02.727Z,11.07
2019-06-07T01:30:34.738Z,13.17
2019-06-07T01:33:06.312Z,11.53
2019-06-07T01:35:37.131Z,13.57
2019-06-07T01:38:08.752Z,13.10
2019-06-07T01:40:39.421Z,13.03
2019-06-07T01:43:10.633Z,12.93
2019-06-07T01:45:43.807Z,12.80
2019-06-07T01:48:14.554Z,14.13
2019-06-07T01:50:45.283Z,15.73
2019-06-07T01:53:15.948Z,12.87
2019-06-07T01:55:46.902Z,12.87
2019-06-07T01:58:19.696Z,14.77
2019-06-07T02:00:50.680Z,13.07
2019-06-07T02:03:26.325Z,12.57
2019-06-07T02:05:54.487Z,13.20
2019-06-07T02:08:27.245Z,13.30
2019-06-07T02:10:57.952Z,14.00
2019-06-07T02:13:30.732Z,14.10
2019-06-07T02:16:01.575Z,13.10
2019-06-07T02:18:34.620Z,13.83
2019-06-07T02:21:05.084Z,14.43
2019-06-07T02:23:36.161Z,14.57
2019-06-07T02:26:07.144Z,14.67
2019-06-07T02:28:45.351Z,14.33
2019-06-07T02:31:10.488Z,14.37
2019-06-07T02:33:41.365Z,14.67
2019-06-07T02:36:12.047Z,13.37
2019-06-07T02:38:42.767Z,12.93
2019-06-07T02:41:13.650Z,12.67
2019-06-07T02:43:44.827Z,12.60
2019-06-07T02:46:31.890Z,13.13
2019-06-07T02:48:56.399Z,13.23
2019-06-07T02:51:32.656Z,12.23
2019-06-07T02:53:59.709Z,12.83
2019-06-07T02:56:45.011Z,14.03
2019-06-07T02:59:05.003Z,12.80
2019-06-07T03:01:41.354Z,12.40
2019-06-07T03:04:09.715Z,12.77
2019-06-07T03:06:43.905Z,12.20
2019-06-07T03:09:15.153Z,11.80
2019-06-07T03:11:48.837Z,11.40
2019-06-07T03:14:22.356Z,10.63
2019-06-07T03:16:56.963Z,11.57
2019-06-07T03:19:31.284Z,10.50
2019-06-07T03:22:04.639Z,11.70
2019-06-07T03:24:41.682Z,11.30
2019-06-07T03:27:34.053Z,10.67
2019-06-07T03:29:42.454Z,11.60
2019-06-07T03:32:13.178Z,11.03
2019-06-07T03:34:44.072Z,10.70
2019-06-07T03:37:14.759Z,10.97
2019-06-07T03:39:45.665Z,12.23
2019-06-07T03:42:16.327Z,12.80
2019-06-07T03:44:47.068Z,11.50
2019-06-07T03:47:18.509Z,12.00
2019-06-07T03:49:49.256Z,11.08
2019-06-07T03:52:20.001Z,11.63
2019-06-07T03:54:51.280Z,11.97
2019-06-07T03:57:22.040Z,12.20
2019-06-07T03:59:52.822Z,12.70
2019-06-07T04:02:23.536Z,13.85
2019-06-07T04:04:54.384Z,11.75
2019-06-07T04:07:25.281Z,12.18
2019-06-07T04:09:56.045Z,13.22
2019-06-07T04:12:28.409Z,12.65
2019-06-07T04:15:00.333Z,12.50
2019-06-07T04:17:33.844Z,13.10
2019-06-07T04:20:05.252Z,12.35
2019-06-07T04:22:39.737Z,12.20
2019-06-07T04:25:11.067Z,11.33
2019-06-07T04:27:41.936Z,11.10
2019-06-07T04:30:15.180Z,12.20
2019-06-07T04:32:45.920Z,11.88
2019-06-07T04:35:16.668Z,12.75
2019-06-07T04:37:47.640Z,12.47
2019-06-07T04:40:19.830Z,11.97
2019-06-07T04:42:50.884Z,11.80
2019-06-07T04:45:33.749Z,11.30
2019-06-07T04:47:56.051Z,10.90
2019-06-07T04:50:33.633Z,11.60
2019-06-07T04:53:02.818Z,10.75
2019-06-07T04:55:36.266Z,11.45
2019-06-07T04:58:06.831Z,10.70
2019-06-07T05:01:01.355Z,9.73
2019-06-07T05:03:11.042Z,10.63
2019-06-07T05:05:43.893Z,11.53
2019-06-07T05:08:27.734Z,9.93
2019-06-07T05:10:47.224Z,11.15
2019-06-07T05:13:18.009Z,9.90
2019-06-07T05:15:48.652Z,10.25
2019-06-07T05:18:19.720Z,9.78
2019-06-07T05:20:50.548Z,10.65
2019-06-07T05:24:00.130Z,10.35
2019-06-07T05:25:53.947Z,10.82
2019-06-07T05:28:24.811Z,10.75
2019-06-07T05:31:04.504Z,10.43
2019-06-07T05:33:28.263Z,11.88
2019-06-07T05:35:59.059Z,10.23
2019-06-07T05:38:31.027Z,10.72
2019-06-07T05:41:01.875Z,9.23
2019-06-07T05:43:34.985Z,9.65
2019-06-07T05:46:05.382Z,8.60
2019-06-07T05:48:40.782Z,8.00
2019-06-07T05:51:10.317Z,8.25
2019-06-07T05:53:43.122Z,7.95
2019-06-07T05:56:14.394Z,7.75
2019-06-07T05:58:45.807Z,7.67
2019-06-07T06:03:48.918Z,7.60
2019-06-07T06:06:19.809Z,8.13
2019-06-07T06:08:50.677Z,6.85
2019-06-07T06:11:21.414Z,6.55
2019-06-07T06:14:06.595Z,6.50
2019-06-07T06:16:25.326Z,5.97
2019-06-07T06:18:56.145Z,5.30
2019-06-07T06:21:27.220Z,5.55
2019-06-07T06:23:58.393Z,5.10
2019-06-07T06:26:29.923Z,5.17
2019-06-07T06:29:00.965Z,5.50
2019-06-07T06:31:32.597Z,4.00
2019-06-07T06:34:03.571Z,5.53
2019-06-07T06:36:35.029Z,4.15
2019-06-07T06:39:07.812Z,4.55
2019-06-07T06:41:53.720Z,4.83
2019-06-07T06:44:11.204Z,4.20
2019-06-07T06:46:46.280Z,4.15
2019-06-07T06:49:14.518Z,5.05
2019-06-07T06:51:47.843Z,5.22
2019-06-07T06:54:39.558Z,6.35
2019-06-07T06:56:52.853Z,4.95
2019-06-07T06:59:41.220Z,5.70
2019-06-07T07:01:56.253Z,6.97
2019-06-07T07:04:28.021Z,7.25
2019-06-07T07:06:59.607Z,6.67
2019-06-07T07:09:31.148Z,7.22
2019-06-07T07:12:12.205Z,6.10
2019-06-07T07:14:34.812Z,7.65
2019-06-07T07:17:05.672Z,8.48
2019-06-07T07:19:36.465Z,7.40
2019-06-07T07:22:08.371Z,7.20
2019-06-07T07:24:39.366Z,7.85
2019-06-07T07:27:10.323Z,10.60
2019-06-07T07:29:44.543Z,10.78
2019-06-07T07:32:14.867Z,11.30
2019-06-07T07:34:49.430Z,12.55
2019-06-07T07:37:18.318Z,10.20
2019-06-07T07:39:53.341Z,12.78
2019-06-07T07:42:21.988Z,12.43
2019-06-07T07:44:55.096Z,10.40
2019-06-07T07:47:25.343Z,9.43
2019-06-07T07:49:59.065Z,9.27
2019-06-07T07:52:29.889Z,8.70
2019-06-07T07:55:01.202Z,10.77
2019-06-07T07:57:34.835Z,9.40
2019-06-07T08:00:48.653Z,8.83
2019-06-07T08:02:41.908Z,7.25
2019-06-07T08:05:25.163Z,8.25
2019-06-07T08:07:49.909Z,8.53
2019-06-07T08:10:21.285Z,7.05
2019-06-07T08:13:17.552Z,5.70
2019-06-07T08:15:25.184Z,5.67
2019-06-07T08:18:01.170Z,7.00
2019-06-07T08:20:28.856Z,6.62
2019-06-07T08:23:01.397Z,6.62
2019-06-07T08:25:32.334Z,6.80
2019-06-07T08:28:10.440Z,6.37
2019-06-07T08:30:54.966Z,6.00
2019-06-07T08:33:25.898Z,5.25
2019-06-07T08:36:11.863Z,4.72
2019-06-07T08:38:27.311Z,5.05
2019-06-07T08:40:59.138Z,4.25
2019-06-07T08:43:26.467Z,4.72
2019-06-07T08:46:02.215Z,3.90
2019-06-07T08:48:30.542Z,4.08
2019-06-07T08:51:08.264Z,3.87
2019-06-07T08:53:34.895Z,3.85
2019-06-07T08:56:10.512Z,3.67
2019-06-07T08:58:39.006Z,4.03
2019-06-07T09:01:09.898Z,4.60
2019-06-07T09:03:41.534Z,3.77
2019-06-07T09:07:01.134Z,3.50
2019-06-07T09:08:45.307Z,3.58
2019-06-07T09:11:16.190Z,3.80
2019-06-07T09:13:47.164Z,4.47
2019-06-07T09:16:18.526Z,4.17
2019-06-07T09:18:49.302Z,3.47
2019-06-07T09:21:20.467Z,3.08
2019-06-07T09:23:51.509Z,3.05
2019-06-07T09:26:22.770Z,3.50
2019-06-07T09:28:57.637Z,3.95
2019-06-07T09:31:51.270Z,3.58
2019-06-07T09:34:08.643Z,4.17
2019-06-07T09:36:32.777Z,3.55
2019-06-07T09:39:09.568Z,4.03
2019-06-07T09:41:47.594Z,3.55
2019-06-07T09:44:23.770Z,3.95
2019-06-07T09:46:44.430Z,4.47
2019-06-07T09:49:28.982Z,4.72
2019-06-07T09:51:48.620Z,4.17
2019-06-07T09:56:52.354Z,3.30
2019-06-07T09:59:23.297Z,4.70
2019-06-07T10:01:53.939Z,4.45
2019-06-07T10:04:31.342Z,3.90
2019-06-07T10:07:04.025Z,4.60
2019-06-07T10:12:04.551Z,3.75
2019-06-07T10:14:36.589Z,4.87
2019-06-07T10:17:07.490Z,3.62
2019-06-07T10:19:38.507Z,4.50
2019-06-07T10:22:09.793Z,4.25
2019-06-07T10:24:40.956Z,4.35
2019-06-07T10:27:12.278Z,4.90
2019-06-07T10:29:43.295Z,4.40
2019-06-07T10:32:14.365Z,4.50
2019-06-07T10:34:45.084Z,3.90
2019-06-07T10:37:16.098Z,4.53
2019-06-07T10:39:49.089Z,4.28
2019-06-07T10:42:20.593Z,3.60
2019-06-07T10:44:52.465Z,3.60
2019-06-07T10:47:23.535Z,3.85
2019-06-07T10:49:54.531Z,4.20
2019-06-07T10:52:25.390Z,4.20
2019-06-07T10:54:56.584Z,3.35
2019-06-07T10:57:27.610Z,3.60
2019-06-07T10:59:58.602Z,4.58
2019-06-07T11:02:29.720Z,3.10
2019-06-07T11:05:01.693Z,3.37
2019-06-07T11:07:33.289Z,3.40
2019-06-07T11:10:14.967Z,4.00
2019-06-07T11:12:40.887Z,3.27
2019-06-07T11:15:14.988Z,3.98
2019-06-07T11:17:46.119Z,3.65
2019-06-07T11:20:18.950Z,3.65
2019-06-07T11:22:49.751Z,3.60
2019-06-07T11:25:21.157Z,3.47
2019-06-07T11:27:51.943Z,4.60
2019-06-07T11:30:24.083Z,3.40
2019-06-07T11:32:54.944Z,3.52
2019-06-07T11:35:25.880Z,3.90
2019-06-07T11:37:56.863Z,3.60
2019-06-07T11:40:34.839Z,3.67
2019-06-07T11:43:00.405Z,3.55
2019-06-07T11:45:31.227Z,2.98
2019-06-07T11:48:02.994Z,3.55
2019-06-07T11:50:33.990Z,3.50
2019-06-07T11:53:06.492Z,3.10
2019-06-07T11:55:37.662Z,3.50
2019-06-07T11:58:14.390Z,2.75
2019-06-07T12:00:43.018Z,3.12
2019-06-07T12:03:14.009Z,2.75
2019-06-07T12:05:44.771Z,3.00
2019-06-07T12:08:16.089Z,2.92
2019-06-07T12:10:47.326Z,3.40
2019-06-07T12:13:18.992Z,2.80
2019-06-07T12:15:50.083Z,3.25
2019-06-07T12:18:20.972Z,3.20
2019-06-07T12:20:51.734Z,3.08
2019-06-07T12:23:22.684Z,2.72
2019-06-07T12:25:53.528Z,2.92
2019-06-07T12:28:24.258Z,3.22
2019-06-07T12:30:55.373Z,3.20
2019-06-07T12:33:26.590Z,3.20
2019-06-07T12:35:57.621Z,2.90
2019-06-07T12:38:28.822Z,3.02
2019-06-07T12:41:00.267Z,2.40
2019-06-07T12:43:31.706Z,2.72
2019-06-07T12:46:03.122Z,2.70
2019-06-07T12:48:34.786Z,3.05
2019-06-07T12:51:06.823Z,3.52
2019-06-07T12:53:38.937Z,3.27
2019-06-07T12:56:09.849Z,3.30
2019-06-07T12:58:41.238Z,3.00
2019-06-07T13:01:15.954Z,2.83
2019-06-07T13:03:48.782Z,2.60
2019-06-07T13:06:19.760Z,2.80
2019-06-07T13:08:50.859Z,2.77
2019-06-07T13:11:28.151Z,2.75
2019-06-07T13:13:54.834Z,2.85
2019-06-07T13:16:25.925Z,3.02
2019-06-07T13:18:56.728Z,2.65
2019-06-07T13:21:28.662Z,2.87
2019-06-07T13:23:59.861Z,2.98
2019-06-07T13:26:31.291Z,3.25
2019-06-07T13:29:02.658Z,3.17
2019-06-07T13:31:33.660Z,3.67
2019-06-07T13:34:04.772Z,3.65
2019-06-07T13:36:35.702Z,3.45
2019-06-07T13:39:08.489Z,3.15
2019-06-07T13:41:43.236Z,3.08
2019-06-07T13:44:14.925Z,3.87
2019-06-07T13:46:45.948Z,2.72
2019-06-07T13:49:19.423Z,3.50
2019-06-07T13:51:51.316Z,3.05
2019-06-07T13:54:24.801Z,2.95
2019-06-07T13:57:01.959Z,3.15
2019-06-07T13:59:31.070Z,3.08
2019-06-07T14:02:02.588Z,3.40
2019-06-07T14:04:34.137Z,3.35
2019-06-07T14:07:05.158Z,3.52
2019-06-07T14:09:36.079Z,3.27
2019-06-07T14:12:07.991Z,2.80
2019-06-07T14:14:39.557Z,3.55
2019-06-07T14:17:11.424Z,2.87
2019-06-07T14:19:42.859Z,3.02
2019-06-07T14:22:14.145Z,3.17
2019-06-07T14:24:45.066Z,2.95
2019-06-07T14:27:16.424Z,2.77
2019-06-07T14:29:47.494Z,2.98
2019-06-07T14:32:18.382Z,2.83
2019-06-07T14:34:49.226Z,3.17
2019-06-07T14:37:20.890Z,2.58
2019-06-07T14:39:51.696Z,3.00
2019-06-07T14:42:23.437Z,3.05
2019-06-07T14:44:54.406Z,2.90
2019-06-07T14:47:26.062Z,3.30
2019-06-07T14:49:56.926Z,3.10
2019-06-07T14:52:28.453Z,3.42
2019-06-07T14:55:00.472Z,3.10
2019-06-07T14:57:31.341Z,3.27
2019-06-07T15:00:10.516Z,3.20
2019-06-07T15:02:38.366Z,3.40
2019-06-07T15:05:09.976Z,2.83
2019-06-07T15:07:41.765Z,3.55
2019-06-07T15:10:13.443Z,3.83
2019-06-07T15:12:44.140Z,2.92
2019-06-07T15:15:15.014Z,3.10
2019-06-07T15:17:45.939Z,3.30
2019-06-07T15:20:16.988Z,3.02
2019-06-07T15:22:48.034Z,3.27
2019-06-07T15:25:19.049Z,3.10
2019-06-07T15:27:49.793Z,3.30
2019-06-07T15:30:21.371Z,2.67
2019-06-07T15:32:52.219Z,3.77
2019-06-07T15:35:23.322Z,3.30
2019-06-07T15:37:55.715Z,2.60
2019-06-07T15:40:26.749Z,2.65
2019-06-07T15:42:57.589Z,3.65
2019-06-07T15:45:29.368Z,4.42
2019-06-07T15:48:00.293Z,3.85
2019-06-07T15:50:32.196Z,4.28
2019-06-07T15:53:03.189Z,4.42
2019-06-07T15:55:39.147Z,4.67
2019-06-07T15:58:06.640Z,4.70
2019-06-07T16:00:37.502Z,4.30
2019-06-07T16:03:08.586Z,3.92
2019-06-07T16:05:40.494Z,4.15
2019-06-07T16:08:11.822Z,4.05
2019-06-07T16:10:43.077Z,4.22
2019-06-07T16:13:14.319Z,4.20
2019-06-07T16:15:45.186Z,5.25
2019-06-07T16:18:16.011Z,3.80
2019-06-07T16:20:46.972Z,4.78
2019-06-07T16:23:17.653Z,5.03
2019-06-07T16:25:49.142Z,5.33
2019-06-07T16:28:21.479Z,5.28
2019-06-07T16:30:53.123Z,4.92
2019-06-07T16:33:23.985Z,4.95
2019-06-07T16:35:54.695Z,5.00
2019-06-07T16:38:25.506Z,4.40
2019-06-07T16:40:56.333Z,4.30
2019-06-07T16:43:27.498Z,4.55
2019-06-07T16:45:58.603Z,4.65
2019-06-07T16:48:29.680Z,4.75
2019-06-07T16:51:00.847Z,4.78
2019-06-07T16:53:31.909Z,5.30
2019-06-07T16:56:02.803Z,4.40
2019-06-07T16:58:33.724Z,4.50
2019-06-07T17:01:05.683Z,4.62
2019-06-07T17:03:37.312Z,4.47
2019-06-07T17:06:08.586Z,9.70
2019-06-07T17:08:40.137Z,10.13
2019-06-07T17:11:11.269Z,4.92
2019-06-07T17:13:42.685Z,16.67
2019-06-07T17:16:13.936Z,6.42
2019-06-07T17:18:45.557Z,8.68
2019-06-07T17:21:18.135Z,6.47
2019-06-07T17:23:49.461Z,4.45
2019-06-07T17:26:20.355Z,8.30
2019-06-07T17:28:52.653Z,4.33
2019-06-07T17:31:23.557Z,4.40
2019-06-07T17:33:54.341Z,4.55
2019-06-07T17:36:25.476Z,5.40
2019-06-07T17:38:56.561Z,14.40
2019-06-07T17:41:27.421Z,5.70
2019-06-07T17:44:00.382Z,8.85
2019-06-07T17:46:31.654Z,4.65
2019-06-07T17:49:02.546Z,4.97
2019-06-07T17:51:33.451Z,5.45
2019-06-07T17:54:07.337Z,5.65
2019-06-07T17:56:40.207Z,5.47
2019-06-07T17:59:11.045Z,4.83
2019-06-07T18:02:01.878Z,5.08
2019-06-07T18:04:14.873Z,4.70
2019-06-07T18:06:47.543Z,4.95
2019-06-07T18:09:19.152Z,5.12
2019-06-07T18:11:50.234Z,4.95
2019-06-07T18:14:21.657Z,4.87
2019-06-07T18:16:54.852Z,5.10
2019-06-07T18:19:25.717Z,5.30
2019-06-07T18:21:58.958Z,5.42
2019-06-07T18:24:29.088Z,4.87
2019-06-07T18:26:59.993Z,5.42
2019-06-07T18:29:33.653Z,4.60
2019-06-07T18:32:04.433Z,5.53
2019-06-07T18:34:35.501Z,5.33
2019-06-07T18:37:06.611Z,5.33
2019-06-07T18:39:38.173Z,5.40
2019-06-07T18:42:09.401Z,5.97
2019-06-07T18:44:40.255Z,6.20
2019-06-07T18:47:11.633Z,6.20
2019-06-07T18:49:42.725Z,6.30
2019-06-07T18:52:15.350Z,6.22
2019-06-07T18:54:46.842Z,12.25
2019-06-07T18:57:18.900Z,11.88
2019-06-07T18:59:52.256Z,14.00
2019-06-07T19:02:24.051Z,9.35
2019-06-07T19:04:56.350Z,13.48
2019-06-07T19:07:27.965Z,16.40
2019-06-07T19:09:59.531Z,7.97
2019-06-07T19:12:32.168Z,8.40
2019-06-07T19:15:04.044Z,9.08
2019-06-07T19:17:35.952Z,10.35
2019-06-07T19:20:08.469Z,13.10
2019-06-07T19:22:39.444Z,9.03
2019-06-07T19:25:10.925Z,8.15
2019-06-07T19:27:42.443Z,8.10
2019-06-07T19:30:14.864Z,9.95
2019-06-07T19:32:45.684Z,14.53
2019-06-07T19:35:18.705Z,14.93
2019-06-07T19:37:50.020Z,9.00
2019-06-07T19:40:21.452Z,8.65
2019-06-07T19:42:53.994Z,8.58
2019-06-07T19:45:30.730Z,8.60
2019-06-07T19:48:00.778Z,9.13
2019-06-07T19:50:33.328Z,8.28
2019-06-07T19:53:04.340Z,10.20
2019-06-07T19:55:35.326Z,9.05
2019-06-07T19:58:06.681Z,9.78
2019-06-07T20:00:38.251Z,10.48
2019-06-07T20:03:10.213Z,11.50
2019-06-07T20:05:43.104Z,13.95
2019-06-07T20:08:13.943Z,10.00
2019-06-07T20:10:44.883Z,12.73
2019-06-07T20:13:18.986Z,10.00
2019-06-07T20:15:50.447Z,11.70
2019-06-07T20:18:21.336Z,10.77
2019-06-07T20:20:52.607Z,10.77
2019-06-07T20:23:23.984Z,10.43
2019-06-07T20:25:55.290Z,11.90
2019-06-07T20:28:26.174Z,16.60
2019-06-07T20:30:57.701Z,10.87
2019-06-07T20:33:28.393Z,11.70
2019-06-07T20:36:00.465Z,12.67
2019-06-07T20:38:31.759Z,11.73
2019-06-07T20:41:03.297Z,11.23
2019-06-07T20:43:34.372Z,13.47
2019-06-07T20:46:06.675Z,13.93
2019-06-07T20:48:38.294Z,13.27
2019-06-07T20:51:11.549Z,13.03
2019-06-07T20:53:46.297Z,13.00
2019-06-07T20:56:17.328Z,13.93
2019-06-07T20:58:49.410Z,15.10
2019-06-07T21:01:20.231Z,22.23
2019-06-07T21:03:51.124Z,17.33
2019-06-07T21:06:21.903Z,14.10
2019-06-07T21:08:52.893Z,13.50
2019-06-07T21:11:24.291Z,14.13
2019-06-07T21:13:55.243Z,12.07
2019-06-07T21:16:27.109Z,13.13
2019-06-07T21:18:58.517Z,13.87
2019-06-07T21:21:31.516Z,13.47
2019-06-07T21:24:02.559Z,14.97
2019-06-07T21:26:33.828Z,13.33
2019-06-07T21:29:05.385Z,13.03
2019-06-07T21:31:36.474Z,13.20
2019-06-07T21:34:11.574Z,13.20
2019-06-07T21:36:41.302Z,12.93
2019-06-07T21:39:12.414Z,12.67
2019-06-07T21:41:43.463Z,12.20
2019-06-07T21:44:14.208Z,12.93
2019-06-07T21:46:45.182Z,12.33
2019-06-07T21:49:16.235Z,13.83
2019-06-07T21:51:47.110Z,11.47
2019-06-07T21:54:18.063Z,11.27
2019-06-07T21:56:49.183Z,12.67
2019-06-07T21:59:20.342Z,12.57
2019-06-07T22:01:52.953Z,14.50
2019-06-07T22:04:24.120Z,14.70
2019-06-07T22:06:55.080Z,14.47
2019-06-07T22:09:26.305Z,13.53
2019-06-07T22:11:57.087Z,14.37
2019-06-07T22:14:28.177Z,13.63
2019-06-07T22:16:59.397Z,13.23
2019-06-07T22:19:30.232Z,14.53
2019-06-07T22:22:03.310Z,15.63
2019-06-07T22:24:34.930Z,14.27
2019-06-07T22:27:07.062Z,15.40
2019-06-07T22:29:38.243Z,14.37
2019-06-07T22:32:08.904Z,14.83
2019-06-07T22:34:39.742Z,16.27
2019-06-07T22:37:11.306Z,14.70
2019-06-07T22:39:42.377Z,15.07
2019-06-07T22:42:15.290Z,16.17
2019-06-07T22:44:46.117Z,15.93
2019-06-07T22:47:18.303Z,16.07
2019-06-07T22:49:49.376Z,15.70
2019-06-07T22:52:20.248Z,16.57
2019-06-07T22:54:51.371Z,15.30
2019-06-07T22:57:23.966Z,14.93
2019-06-07T22:59:56.977Z,14.43
2019-06-07T23:02:27.842Z,14.50
2019-06-07T23:04:58.743Z,15.47
2019-06-07T23:07:29.493Z,14.17
2019-06-07T23:10:00.789Z,13.40
2019-06-07T23:12:31.759Z,14.50
2019-06-07T23:15:02.583Z,14.00
2019-06-07T23:17:33.476Z,14.83
2019-06-07T23:20:11.861Z,15.67
2019-06-07T23:22:43.375Z,16.00
2019-06-07T23:25:18.859Z,16.03
2019-06-07T23:27:47.943Z,16.50
2019-06-07T23:30:21.712Z,16.50
2019-06-07T23:32:52.455Z,18.00
2019-06-07T23:35:23.600Z,18.47
2019-06-07T23:37:54.547Z,17.77
2019-06-07T23:40:25.327Z,17.33
2019-06-07T23:42:56.704Z,16.73
2019-06-07T23:45:27.827Z,17.23
2019-06-07T23:47:58.645Z,17.73
2019-06-07T23:50:29.361Z,17.73
2019-06-07T23:53:00.147Z,18.47
2019-06-07T23:55:31.163Z,17.10
2019-06-07T23:58:01.968Z,16.97
